Time,TemperatureF,DewpointF,PressureIn,WindDirection,WindDirectionDegrees,WindSpeedMPH,WindSpeedGustMPH,Humidity,HourlyPrecipIn,Conditions,Clouds,dailyrainin,SoftwareType,DateUTC
2013-07-16 00:01:00,48.0,42.0,30.59,NNE,25,8.0,14.0,80,0.00,,,0.25,,2013-07-16 07:01:00,
2013-07-16 00:11:00,49.0,43.0,30.59,NNE,20,10.0,15.0,79,0.00,,,0.25,,2013-07-16 07:11:00,
2013-07-16 00:22:00,49.0,43.0,30.59,NNE,19,12.0,17.0,79,0.00,,,0.25,,2013-07-16 07:22:00,
2013-07-16 00:32:00,49.0,42.0,30.59,NNE,24,12.0,19.0,78,0.00,,,0.25,,2013-07-16 07:32:00,
2013-07-16 00:43:00,49.0,42.0,30.59,NNE,19,11.0,19.0,78,0.00,,,0.25,,2013-07-16 07:43:00,
2013-07-16 00:52:00,49.0,42.0,30.60,NNE,26,10.0,17.0,78,0.00,,,0.25,,2013-07-16 07:52:00,
2013-07-16 01:01:00,49.0,42.0,30.59,NNE,27,8.0,15.0,77,0.00,,,0.25,,2013-07-16 08:01:00,
2013-07-16 01:11:00,49.0,42.0,30.59,NE,36,10.0,16.0,78,0.00,,,0.25,,2013-07-16 08:11:00,
2013-07-16 01:32:00,49.0,42.0,30.59,NNE,29,9.0,14.0,78,0.00,,,0.25,,2013-07-16 08:32:00,
2013-07-16 01:43:00,48.0,42.0,30.58,NE,36,12.0,18.0,80,0.00,,,0.25,,2013-07-16 08:43:00,
2013-07-16 01:52:00,48.0,42.0,30.59,NNE,29,10.0,16.0,80,0.00,,,0.25,,2013-07-16 08:52:00,
2013-07-16 02:01:00,48.0,42.0,30.59,NE,35,9.0,15.0,80,0.00,,,0.25,,2013-07-16 09:01:00,
2013-07-16 02:12:00,49.0,42.0,30.58,NNE,28,8.0,14.0,78,0.00,,,0.25,,2013-07-16 09:12:00,
2013-07-16 02:22:00,49.0,42.0,30.59,NNE,33,9.0,15.0,78,0.00,,,0.25,,2013-07-16 09:22:00,
2013-07-16 02:32:00,49.0,42.0,30.58,NNE,23,8.0,12.0,77,0.00,,,0.25,,2013-07-16 09:32:00,
2013-07-16 02:42:00,49.0,42.0,30.58,NNE,17,7.0,13.0,77,0.00,,,0.25,,2013-07-16 09:42:00,
2013-07-16 02:52:00,49.0,42.0,30.58,NNE,15,5.0,11.0,77,0.00,,,0.25,,2013-07-16 09:52:00,
2013-07-16 03:01:00,49.0,42.0,30.58,NNE,32,5.0,10.0,76,0.00,,,0.25,,2013-07-16 10:01:00,
2013-07-16 03:11:00,49.0,41.0,30.58,NNE,19,5.0,10.0,75,0.00,,,0.25,,2013-07-16 10:11:00,
2013-07-16 03:31:00,50.0,42.0,30.58,North,9,6.0,9.0,73,0.00,,,0.25,,2013-07-16 10:31:00,
2013-07-16 03:42:00,50.0,42.0,30.58,North,7,6.0,10.0,73,0.00,,,0.25,,2013-07-16 10:42:00,
2013-07-16 03:52:00,50.0,42.0,30.58,North,6,5.0,9.0,73,0.00,,,0.25,,2013-07-16 10:52:00,
2013-07-16 04:01:00,50.0,42.0,30.57,North,10,5.0,8.0,73,0.00,,,0.25,,2013-07-16 11:01:00,
2013-07-16 04:11:00,50.0,42.0,30.57,NNW,343,4.0,8.0,74,0.00,,,0.25,,2013-07-16 11:11:00,
2013-07-16 04:22:00,50.0,42.0,30.58,NNW,343,3.0,6.0,75,0.00,,,0.25,,2013-07-16 11:22:00,
2013-07-16 04:32:00,50.0,42.0,30.57,NNW,338,4.0,6.0,75,0.00,,,0.25,,2013-07-16 11:32:00,
2013-07-16 04:42:00,50.0,42.0,30.57,North,350,4.0,5.0,75,0.00,,,0.25,,2013-07-16 11:42:00,
2013-07-16 04:52:00,49.0,41.0,30.57,NNW,339,4.0,6.0,75,0.00,,,0.25,,2013-07-16 11:52:00,
2013-07-16 05:01:00,50.0,42.0,30.57,NNW,334,4.0,6.0,75,0.00,,,0.25,,2013-07-16 12:01:00,
2013-07-16 05:11:00,50.0,42.0,30.58,NNW,333,3.0,6.0,75,0.00,,,0.25,,2013-07-16 12:11:00,
2013-07-16 05:22:00,49.0,41.0,30.58,NW,310,4.0,6.0,75,0.00,,,0.25,,2013-07-16 12:22:00,
2013-07-16 05:32:00,49.0,41.0,30.58,NW,310,4.0,6.0,75,0.00,,,0.25,,2013-07-16 12:32:00,
2013-07-16 05:43:00,49.0,42.0,30.58,NNW,332,4.0,7.0,77,0.00,,,0.25,,2013-07-16 12:43:00,
2013-07-16 05:53:00,49.0,42.0,30.58,NNW,344,3.0,7.0,77,0.00,,,0.25,,2013-07-16 12:53:00,
2013-07-16 06:01:00,48.0,42.0,30.59,NNW,333,5.0,8.0,81,0.00,,,0.25,,2013-07-16 13:01:00,
2013-07-16 06:32:00,47.0,42.0,30.60,NW,324,3.0,7.0,83,0.00,,,0.25,,2013-07-16 13:32:00,
2013-07-16 06:42:00,47.0,42.0,30.60,NNW,340,5.0,8.0,83,0.00,,,0.25,,2013-07-16 13:42:00,
2013-07-16 07:01:00,48.0,43.0,30.59,WNW,301,3.0,5.0,83,0.00,,,0.25,,2013-07-16 14:01:00,
2013-07-16 07:11:00,48.0,43.0,30.60,NW,315,3.0,7.0,83,0.00,,,0.25,,2013-07-16 14:11:00,
2013-07-16 07:42:00,48.0,44.0,30.62,NW,312,1.0,6.0,85,0.00,,,0.25,,2013-07-16 14:42:00,
2013-07-16 07:52:00,48.0,43.0,30.62,NNW,328,3.0,5.0,84,0.00,,,0.25,,2013-07-16 14:52:00,
2013-07-16 08:01:00,48.0,43.0,30.62,NW,317,2.0,6.0,84,0.00,,,0.25,,2013-07-16 15:01:00,
2013-07-16 08:11:00,48.0,43.0,30.61,NW,319,2.0,6.0,84,0.00,,,0.25,,2013-07-16 15:11:00,
2013-07-16 08:43:00,49.0,44.0,30.62,NW,308,3.0,7.0,84,0.00,,,0.25,,2013-07-16 15:43:00,
2013-07-16 08:52:00,49.0,44.0,30.62,WNW,299,3.0,8.0,83,0.00,,,0.25,,2013-07-16 15:52:00,
2013-07-16 09:01:00,48.0,44.0,30.62,WNW,284,3.0,6.0,85,0.00,,,0.25,,2013-07-16 16:01:00,
2013-07-16 09:11:00,49.0,45.0,30.62,WNW,294,2.0,6.0,87,0.00,,,0.25,,2013-07-16 16:11:00,
2013-07-16 09:32:00,49.0,46.0,30.62,WNW,287,3.0,6.0,89,0.00,,,0.25,,2013-07-16 16:32:00,
2013-07-16 09:43:00,48.0,45.0,30.64,West,280,5.0,8.0,88,0.00,,,0.25,,2013-07-16 16:43:00,
2013-07-16 09:52:00,49.0,46.0,30.64,North,0,0.0,5.0,89,0.00,,,0.25,,2013-07-16 16:52:00,
2013-07-16 10:02:00,49.0,46.0,30.65,West,273,2.0,5.0,89,0.00,,,0.25,,2013-07-16 17:02:00,
2013-07-16 10:11:00,49.0,46.0,30.65,West,277,2.0,5.0,90,0.00,,,0.25,,2013-07-16 17:11:00,
2013-07-16 10:32:00,47.0,45.0,30.65,NW,309,2.0,6.0,91,0.00,,,0.25,,2013-07-16 17:32:00,
2013-07-16 10:43:00,48.0,45.0,30.65,NNW,341,3.0,5.0,91,0.00,,,0.25,,2013-07-16 17:43:00,
2013-07-16 10:52:00,48.0,46.0,30.65,NNW,340,1.0,4.0,92,0.00,,,0.25,,2013-07-16 17:52:00,
2013-07-16 11:01:00,49.0,47.0,30.66,North,356,1.0,4.0,92,0.00,,,0.25,,2013-07-16 18:01:00,
2013-07-16 11:11:00,49.0,46.0,30.66,NNW,338,3.0,5.0,91,0.00,,,0.25,,2013-07-16 18:11:00,
2013-07-16 11:43:00,47.0,-99.9,30.64,North,1,9.0,12.0,-999,0.19,,,0.44,,2013-07-16 18:43:00,
2013-07-16 11:52:00,46.0,42.0,30.64,North,357,5.0,13.0,87,0.34,,,0.59,,2013-07-16 18:52:00,
2013-07-16 12:01:00,45.0,42.0,30.64,NNW,339,4.0,12.0,90,0.44,,,0.69,,2013-07-16 19:01:00,
2013-07-16 12:11:00,45.0,43.0,30.64,North,355,8.0,12.0,91,0.48,,,0.73,,2013-07-16 19:11:00,
2013-07-16 12:22:00,46.0,-99.9,30.64,NNW,347,6.0,13.0,-999,0.58,,,0.83,,2013-07-16 19:22:00,
2013-07-16 12:32:00,46.0,-99.9,30.64,NNE,25,8.0,13.0,-999,0.75,,,1.01,,2013-07-16 19:32:00,
2013-07-16 12:43:00,47.0,45.0,30.65,NNW,333,4.0,7.0,91,0.84,,,1.22,,2013-07-16 19:43:00,
2013-07-16 13:03:00,46.0,-99.9,30.65,NW,304,3.0,9.0,-999,0.95,,,1.45,,2013-07-16 20:03:00,
2013-07-16 13:43:00,46.0,44.0,30.63,NNW,331,5.0,8.0,94,0.73,,,1.79,,2013-07-16 20:43:00,
2013-07-16 13:52:00,46.0,44.0,30.63,NNW,331,5.0,8.0,94,0.73,,,1.79,,2013-07-16 20:52:00,
2013-07-16 14:11:00,46.0,44.0,30.63,NW,305,3.0,9.0,94,0.57,,,1.89,,2013-07-16 21:11:00,
2013-07-16 14:52:00,46.0,43.0,30.64,NNE,14,8.0,10.0,90,0.13,,,1.92,,2013-07-16 21:52:00,
2013-07-16 15:32:00,48.0,45.0,30.63,North,1,10.0,14.0,88,0.00,,,1.92,,2013-07-16 22:32:00,
2013-07-16 15:43:00,48.0,45.0,30.62,NNE,13,12.0,19.0,88,0.00,,,1.92,,2013-07-16 22:43:00,
2013-07-16 15:52:00,48.0,45.0,30.62,North,8,11.0,22.0,89,0.00,,,1.92,,2013-07-16 22:52:00,
2013-07-16 16:01:00,49.0,45.0,30.63,NE,40,4.0,12.0,87,0.00,,,1.92,,2013-07-16 23:01:00,
2013-07-16 16:11:00,49.0,45.0,30.63,NE,40,5.0,13.0,85,0.00,,,1.92,,2013-07-16 23:11:00,
2013-07-16 16:32:00,50.0,45.0,30.63,West,262,1.0,13.0,82,0.00,,,1.92,,2013-07-16 23:32:00,
2013-07-16 16:52:00,48.0,43.0,30.62,North,349,12.0,17.0,84,0.00,,,1.92,,2013-07-16 23:52:00,
2013-07-16 17:01:00,48.0,44.0,30.62,NNW,343,9.0,17.0,87,0.00,,,1.92,,2013-07-17 00:01:00,
2013-07-16 17:33:00,48.0,44.0,30.62,NNE,13,10.0,14.0,85,0.00,,,1.92,,2013-07-17 00:33:00,
2013-07-16 17:42:00,47.0,43.0,30.63,NNW,346,4.0,15.0,87,0.00,,,1.92,,2013-07-17 00:42:00,
2013-07-16 17:52:00,47.0,45.0,30.63,North,10,7.0,10.0,91,0.00,,,1.92,,2013-07-17 00:52:00,
2013-07-16 18:01:00,47.0,45.0,30.63,NNE,13,7.0,9.0,92,0.00,,,1.92,,2013-07-17 01:01:00,
2013-07-16 18:11:00,48.0,44.0,30.63,NNE,21,7.0,13.0,86,0.00,,,1.92,,2013-07-17 01:11:00,
2013-07-16 18:32:00,48.0,44.0,30.62,NNE,27,6.0,12.0,85,0.00,,,1.92,,2013-07-17 01:32:00,
2013-07-16 18:52:00,48.0,44.0,30.63,NNE,29,6.0,12.0,87,0.01,,,1.93,,2013-07-17 01:52:00,
2013-07-16 19:11:00,48.0,44.0,30.64,NE,36,5.0,10.0,85,0.01,,,1.93,,2013-07-17 02:11:00,
2013-07-16 19:32:00,49.0,44.0,30.64,North,10,5.0,10.0,82,0.01,,,1.93,,2013-07-17 02:32:00,
2013-07-16 19:53:00,49.0,43.0,30.64,North,7,8.0,12.0,81,0.00,,,1.93,,2013-07-17 02:53:00,
2013-07-16 20:01:00,49.0,43.0,30.64,North,4,9.0,14.0,81,0.00,,,1.93,,2013-07-17 03:01:00,
2013-07-16 20:11:00,49.0,43.0,30.64,North,359,10.0,14.0,81,0.00,,,1.93,,2013-07-17 03:11:00,
2013-07-16 20:43:00,49.0,44.0,30.66,NNW,347,5.0,10.0,84,0.00,,,1.93,,2013-07-17 03:43:00,
2013-07-16 20:52:00,49.0,44.0,30.66,North,353,4.0,6.0,83,0.00,,,1.93,,2013-07-17 03:52:00,
2013-07-16 21:11:00,49.0,45.0,30.67,NNE,16,4.0,11.0,85,0.00,,,1.93,,2013-07-17 04:11:00,
2013-07-16 21:22:00,49.0,44.0,30.68,NNE,12,10.0,14.0,83,0.00,,,1.93,,2013-07-17 04:22:00,
2013-07-16 21:42:00,49.0,44.0,30.68,NNE,22,6.0,15.0,84,0.00,,,1.93,,2013-07-17 04:42:00,
2013-07-16 21:53:00,49.0,44.0,30.68,NNE,22,7.0,15.0,83,0.00,,,1.93,,2013-07-17 04:53:00,
2013-07-16 22:01:00,49.0,44.0,30.69,NNE,23,5.0,15.0,83,0.00,,,1.93,,2013-07-17 05:01:00,
2013-07-16 22:11:00,49.0,44.0,30.69,NNE,15,7.0,15.0,84,0.00,,,1.93,,2013-07-17 05:11:00,
2013-07-16 22:32:00,49.0,44.0,30.69,NE,52,4.0,6.0,83,0.00,,,1.93,,2013-07-17 05:32:00,
2013-07-16 22:52:00,49.0,44.0,30.69,NE,41,8.0,10.0,83,0.00,,,1.93,,2013-07-17 05:52:00,
2013-07-16 23:01:00,48.0,43.0,30.70,NE,38,5.0,10.0,84,0.00,,,1.93,,2013-07-17 06:01:00,
2013-07-16 23:11:00,48.0,43.0,30.69,NE,40,6.0,10.0,84,0.00,,,1.93,,2013-07-17 06:11:00,
2013-07-16 23:32:00,49.0,44.0,30.69,ENE,64,7.0,9.0,83,0.00,,,1.93,,2013-07-17 06:32:00,
2013-07-16 23:52:00,49.0,43.0,30.69,ENE,64,4.0,7.0,81,0.00,,,1.93,,2013-07-17 06:52:00,